createdAt,value
2023-04-05T00:03:43.870Z,3.58
2023-04-05T00:08:49.951Z,4.00
2023-04-05T00:13:52.224Z,3.70
2023-04-05T00:18:52.918Z,3.22
2023-04-05T00:23:57.178Z,3.25
2023-04-05T00:28:59.142Z,3.88
2023-04-05T00:33:59.827Z,3.10
2023-04-05T00:39:00.501Z,3.67
2023-04-05T00:44:03.873Z,3.00
2023-04-05T00:49:05.936Z,3.10
2023-04-05T00:54:07.258Z,2.80
2023-04-05T00:59:09.504Z,3.53
2023-04-05T01:04:14.052Z,2.63
2023-04-05T01:09:23.269Z,2.92
2023-04-05T01:14:25.445Z,2.92
2023-04-05T01:19:29.249Z,2.63
2023-04-05T01:24:46.889Z,2.65
2023-04-05T01:30:04.701Z,2.90
2023-04-05T01:35:14.357Z,3.20
2023-04-05T01:40:15.142Z,3.47
2023-04-05T01:45:17.136Z,2.63
2023-04-05T01:50:17.988Z,3.08
2023-04-05T01:55:18.782Z,2.83
2023-04-05T02:00:21.004Z,2.35
2023-04-05T02:05:21.731Z,3.03
2023-04-05T02:10:23.875Z,3.00
2023-04-05T02:15:26.018Z,3.08
2023-04-05T02:20:26.806Z,2.88
2023-04-05T02:25:28.191Z,2.80
2023-04-05T02:30:30.302Z,3.30
2023-04-05T02:35:30.999Z,2.83
2023-04-05T02:40:31.741Z,2.72
2023-04-05T02:45:34.437Z,3.25
2023-04-05T02:50:35.112Z,2.83
2023-04-05T02:55:35.798Z,2.80
2023-04-05T03:00:38.386Z,2.90
2023-04-05T03:05:39.862Z,2.83
2023-04-05T03:10:45.026Z,2.50
2023-04-05T03:15:54.766Z,3.15
2023-04-05T03:20:57.764Z,2.13
2023-04-05T03:26:00.105Z,2.85
2023-04-05T03:31:05.317Z,2.47
2023-04-05T03:36:07.138Z,2.50
2023-04-05T03:41:11.287Z,2.60
2023-04-05T03:46:13.335Z,2.83
2023-04-05T03:51:14.077Z,2.75
2023-04-05T03:56:15.185Z,2.88
2023-04-05T04:01:22.108Z,3.58
2023-04-05T04:06:23.008Z,3.05
2023-04-05T04:11:23.859Z,3.03
2023-04-05T04:16:28.226Z,3.42
2023-04-05T04:21:39.989Z,2.72
2023-04-05T04:26:46.844Z,3.38
2023-04-05T04:32:07.849Z,2.85
2023-04-05T04:37:30.193Z,2.70
2023-04-05T04:42:58.722Z,2.95
2023-04-05T04:48:14.084Z,3.53
2023-04-05T04:53:30.321Z,3.10
2023-04-05T04:58:31.126Z,3.20
2023-04-05T05:03:42.166Z,2.80
2023-04-05T05:08:42.847Z,3.30
2023-04-05T05:13:43.529Z,3.63
2023-04-05T05:18:52.763Z,3.30
2023-04-05T05:23:55.310Z,3.85
2023-04-05T05:28:56.516Z,4.10
2023-04-05T05:34:03.514Z,3.95
2023-04-05T05:39:05.903Z,4.35
2023-04-05T05:44:07.418Z,4.78
2023-04-05T05:49:09.413Z,5.00
2023-04-05T05:54:10.062Z,5.05
2023-04-05T05:59:12.093Z,5.45
2023-04-05T06:04:14.718Z,5.63
2023-04-05T06:09:16.225Z,4.57
2023-04-05T06:14:17.104Z,5.20
2023-04-05T06:19:19.211Z,4.53
2023-04-05T06:24:19.916Z,5.18
2023-04-05T06:29:20.647Z,5.43
2023-04-05T06:34:23.043Z,5.13
2023-04-05T06:39:23.771Z,5.43
2023-04-05T06:44:24.639Z,5.10
2023-04-05T06:49:26.658Z,4.43
2023-04-05T06:54:27.349Z,5.03
2023-04-05T06:59:29.474Z,4.85
2023-04-05T07:04:37.213Z,4.35
2023-04-05T07:09:39.610Z,4.28
2023-04-05T07:14:40.649Z,4.50
2023-04-05T07:19:45.212Z,4.15
2023-04-05T07:24:47.057Z,4.90
2023-04-05T07:29:48.398Z,4.00
2023-04-05T07:34:50.471Z,3.60
2023-04-05T07:39:51.282Z,3.63
2023-04-05T07:44:52.043Z,2.97
2023-04-05T07:49:54.075Z,3.05
2023-04-05T07:54:54.981Z,3.60
2023-04-05T07:59:56.635Z,3.08
2023-04-05T08:04:58.663Z,2.92
2023-04-05T08:10:00.318Z,3.42
2023-04-05T08:15:01.106Z,2.80
2023-04-05T08:20:04.044Z,3.00
2023-04-05T08:25:05.556Z,3.60
2023-04-05T08:30:07.866Z,3.15
2023-04-05T08:35:10.489Z,3.20
2023-04-05T08:40:12.666Z,3.20
2023-04-05T08:45:16.456Z,3.40
2023-04-05T08:50:18.649Z,2.90
2023-04-05T08:55:19.546Z,3.15
2023-04-05T09:00:21.207Z,3.00
2023-04-05T09:05:24.967Z,2.72
2023-04-05T09:10:28.094Z,2.63
2023-04-05T09:15:29.336Z,2.50
2023-04-05T09:20:31.578Z,3.05
2023-04-05T09:25:38.637Z,2.63
2023-04-05T09:30:39.726Z,2.90
2023-04-05T09:35:43.437Z,2.78
2023-04-05T09:40:45.961Z,2.50
2023-04-05T09:45:50.895Z,3.05
2023-04-05T09:51:12.741Z,3.35
2023-04-05T09:56:14.889Z,2.70
2023-04-05T10:01:17.229Z,2.70
2023-04-05T10:06:19.798Z,2.78
2023-04-05T10:11:21.556Z,2.40
2023-04-05T10:16:24.698Z,2.33
2023-04-05T10:21:31.075Z,2.53
2023-04-05T10:26:44.288Z,2.40
2023-04-05T10:31:52.305Z,2.60
2023-04-05T10:36:59.435Z,2.30
2023-04-05T10:42:03.470Z,2.20
2023-04-05T10:47:06.106Z,2.28
2023-04-05T10:52:08.274Z,1.90
2023-04-05T10:57:10.994Z,2.95
2023-04-05T11:02:12.548Z,2.35
2023-04-05T11:07:16.260Z,2.47
2023-04-05T11:12:17.029Z,2.13
2023-04-05T11:17:29.121Z,2.00
2023-04-05T11:22:31.958Z,2.38
2023-04-05T11:27:34.115Z,1.92
2023-04-05T11:32:46.778Z,2.38
2023-04-05T11:38:09.412Z,2.20
2023-04-05T11:43:12.523Z,2.28
2023-04-05T11:48:15.442Z,2.40
2023-04-05T11:53:18.432Z,2.50
2023-04-05T11:58:21.449Z,1.92
2023-04-05T12:03:32.540Z,2.15
2023-04-05T12:08:43.419Z,2.15
2023-04-05T12:13:46.492Z,2.65
2023-04-05T12:18:55.631Z,2.20
2023-04-05T12:23:58.005Z,2.45
2023-04-05T12:29:01.679Z,1.90
2023-04-05T12:34:02.479Z,2.50
2023-04-05T12:39:09.158Z,2.00
2023-04-05T12:44:13.319Z,2.22
2023-04-05T12:49:17.353Z,2.35
2023-04-05T12:54:24.165Z,2.20
2023-04-05T12:59:25.489Z,2.40
2023-04-05T13:04:27.274Z,1.90
2023-04-05T13:09:29.328Z,2.22
2023-04-05T13:14:30.029Z,1.88
2023-04-05T13:19:30.931Z,2.63
2023-04-05T13:24:32.977Z,2.25
2023-04-05T13:29:33.662Z,2.17
2023-04-05T13:34:34.315Z,2.00
2023-04-05T13:39:36.304Z,2.25
2023-04-05T13:44:38.128Z,2.60
2023-04-05T13:49:38.775Z,2.28
2023-04-05T13:54:40.766Z,2.40
2023-04-05T13:59:41.660Z,2.08
2023-04-05T14:04:43.101Z,2.00
2023-04-05T14:09:45.498Z,1.98
2023-04-05T14:14:46.410Z,1.85
2023-04-05T14:19:48.201Z,2.10
2023-04-05T14:24:50.203Z,2.10
2023-04-05T14:29:52.516Z,1.65
2023-04-05T14:34:53.376Z,1.83
2023-04-05T14:39:55.445Z,1.77
2023-04-05T14:44:56.111Z,2.15
2023-04-05T14:49:56.748Z,1.80
2023-04-05T14:54:58.770Z,1.52
2023-04-05T14:59:59.560Z,1.80
2023-04-05T15:05:01.169Z,1.45
2023-04-05T15:10:03.293Z,1.65
2023-04-05T15:15:04.133Z,2.35
2023-04-05T15:20:05.555Z,2.05
2023-04-05T15:25:08.849Z,2.38
2023-04-05T15:30:10.863Z,2.53
2023-04-05T15:35:11.520Z,2.08
2023-04-05T15:40:13.715Z,2.20
2023-04-05T15:45:14.430Z,2.00
2023-04-05T15:50:15.410Z,1.83
2023-04-05T15:55:17.608Z,1.80
2023-04-05T16:00:18.845Z,1.67
2023-04-05T16:05:19.603Z,1.70
2023-04-05T16:10:25.963Z,1.60
2023-04-05T16:15:28.279Z,1.95
2023-04-05T16:20:29.045Z,2.00
2023-04-05T16:25:31.211Z,1.95
2023-04-05T16:30:32.061Z,2.00
2023-04-05T16:35:32.824Z,1.80
2023-04-05T16:40:34.891Z,1.50
2023-04-05T16:58:26.337Z,2.00
2023-04-05T17:03:27.825Z,1.95
2023-04-05T17:08:28.589Z,2.75
2023-04-05T17:13:30.862Z,1.95
2023-04-05T17:18:31.450Z,2.10
2023-04-05T17:23:32.049Z,1.95
2023-04-05T17:28:34.711Z,2.00
2023-04-05T17:33:35.475Z,1.63
2023-04-05T17:38:36.125Z,1.60
2023-04-05T17:43:38.109Z,1.90
2023-04-05T17:48:38.773Z,1.60
2023-04-05T17:53:39.376Z,1.80
2023-04-05T17:58:41.668Z,2.35
2023-04-05T18:04:06.960Z,2.92
2023-04-05T18:09:09.944Z,2.10
2023-04-05T18:14:12.069Z,2.08
2023-04-05T18:19:12.793Z,2.65
2023-04-05T18:24:14.578Z,2.00
2023-04-05T18:29:16.688Z,2.35
2023-04-05T18:34:17.409Z,2.17
2023-04-05T18:39:19.943Z,2.67
2023-04-05T18:44:22.021Z,2.20
2023-04-05T18:49:22.630Z,2.50
2023-04-05T18:54:23.336Z,2.95
2023-04-05T18:59:25.496Z,2.63
2023-04-05T19:04:26.184Z,2.92
2023-04-05T19:09:28.120Z,3.38
2023-04-05T19:14:30.128Z,3.55
2023-04-05T19:19:30.978Z,3.10
2023-04-05T19:24:32.926Z,3.75
2023-04-05T19:29:35.623Z,3.10
2023-04-05T19:34:38.603Z,3.67
2023-04-05T19:39:39.319Z,3.97
2023-04-05T19:44:50.956Z,3.20
2023-04-05T19:49:53.702Z,3.17
2023-04-05T19:54:54.297Z,3.75
2023-04-05T19:59:56.438Z,4.20
2023-04-05T20:04:57.084Z,4.70
2023-04-05T20:09:58.252Z,4.10
2023-04-05T20:15:00.247Z,4.18
2023-04-05T20:20:01.477Z,3.30
2023-04-05T20:25:08.841Z,3.05
2023-04-05T20:30:12.602Z,3.78
2023-04-05T20:35:32.220Z,3.10
2023-04-05T20:40:32.824Z,2.88
2023-04-05T20:45:35.786Z,3.55
2023-04-05T20:50:36.409Z,3.63
2023-04-05T20:55:36.979Z,4.90
2023-04-05T21:00:41.360Z,4.75
2023-04-05T21:05:42.001Z,3.67
2023-04-05T21:10:42.787Z,4.85
2023-04-05T21:15:44.769Z,4.82
2023-04-05T21:20:50.458Z,5.00
2023-04-05T21:25:52.354Z,5.00
2023-04-05T21:30:54.653Z,5.85
2023-04-05T21:35:55.432Z,5.07
2023-04-05T21:40:56.328Z,5.03
2023-04-05T21:45:58.260Z,5.43
2023-04-05T21:50:58.828Z,4.85
2023-04-05T21:55:59.403Z,4.40
2023-04-05T22:01:01.486Z,5.72
2023-04-05T22:06:02.600Z,4.88
2023-04-05T22:11:03.295Z,4.75
2023-04-05T22:16:05.333Z,4.93
2023-04-05T22:21:06.798Z,4.85
2023-04-05T22:26:07.482Z,5.05
2023-04-05T22:31:10.615Z,5.13
2023-04-05T22:36:11.334Z,4.60
2023-04-05T22:41:12.114Z,5.20
2023-04-05T22:46:14.038Z,5.00
2023-04-05T22:51:14.659Z,4.78
2023-04-05T22:56:15.464Z,5.57
2023-04-05T23:01:17.829Z,4.75
2023-04-05T23:06:18.503Z,4.70
2023-04-05T23:11:19.125Z,4.57
2023-04-05T23:16:21.133Z,4.78
2023-04-05T23:21:21.754Z,4.68
2023-04-05T23:26:22.347Z,4.88
2023-04-05T23:31:24.243Z,5.10
2023-04-05T23:36:24.838Z,4.97
2023-04-05T23:41:25.774Z,4.93
2023-04-05T23:46:27.720Z,4.95
2023-04-05T23:51:28.451Z,5.40
2023-04-05T23:56:29.027Z,5.50
